EZY63DK EGKK-EDDH
Flight info
| Callsign | EZY63DK |
|---|---|
| Flight time | 1h 22m |
| Altitude | 35000 |
| Route | FRANE M604 PAAVO Q295 SOMVA DCT MAVAS DCT TULIP Y12 SPY N873 ANDIK M105 RIBSO RIBSO3P |
| Aircraft | A319/M-SDE2E3FGIJ1RWXYZ/LB1 |
Departure
| Time | 2026-04-22 18:48 |
|---|---|
| Airport | London Gatwick Airport (EGKK) |
Arrival
| Time | 2026-04-22 20:10 |
|---|---|
| Airport | Hamburg Helmut Schmidt Airport (EDDH) |
| Time | Latitude | Longitude | Altitude | Speed | Heading |
|---|---|---|---|---|---|
| 2026-04-22 17:49 | 51.15493 | -0.16906 | 205 ft | 0 kts | 349° |
| 2026-04-22 18:29 | 51.15486 | -0.16904 | 216 ft | 4 kts | 347° |
| 2026-04-22 18:29 | 51.15461 | -0.16891 | 217 ft | 4 kts | 327° |
| 2026-04-22 18:29 | 51.15446 | -0.16861 | 214 ft | 3 kts | 261° |
| 2026-04-22 18:29 | 51.15451 | -0.16824 | 212 ft | 4 kts | 255° |
| 2026-04-22 18:30 | 51.15454 | -0.16803 | 211 ft | 0 kts | 258° |
| 2026-04-22 18:33 | 51.15454 | -0.16807 | 211 ft | 1 kts | 258° |
| 2026-04-22 18:34 | 51.15444 | -0.16863 | 213 ft | 9 kts | 255° |
| 2026-04-22 18:34 | 51.15428 | -0.16968 | 207 ft | 10 kts | 256° |
| 2026-04-22 18:34 | 51.15414 | -0.17080 | 209 ft | 11 kts | 259° |
| 2026-04-22 18:34 | 51.15389 | -0.17194 | 206 ft | 11 kts | 245° |
| 2026-04-22 18:35 | 51.15361 | -0.17313 | 205 ft | 11 kts | 250° |
| 2026-04-22 18:35 | 51.15307 | -0.17403 | 209 ft | 11 kts | 239° |
| 2026-04-22 18:35 | 51.15290 | -0.17528 | 205 ft | 12 kts | 258° |
| 2026-04-22 18:35 | 51.15273 | -0.17663 | 212 ft | 14 kts | 257° |
| 2026-04-22 18:36 | 51.15249 | -0.17829 | 205 ft | 16 kts | 257° |
| 2026-04-22 18:36 | 51.15229 | -0.17973 | 214 ft | 13 kts | 257° |
| 2026-04-22 18:36 | 51.15209 | -0.18116 | 205 ft | 13 kts | 257° |
| 2026-04-22 18:36 | 51.15189 | -0.18270 | 205 ft | 16 kts | 261° |
| 2026-04-22 18:37 | 51.15170 | -0.18446 | 211 ft | 16 kts | 257° |
| 2026-04-22 18:37 | 51.15145 | -0.18628 | 205 ft | 17 kts | 258° |
| 2026-04-22 18:37 | 51.15128 | -0.18754 | 214 ft | 17 kts | 258° |
| 2026-04-22 18:37 | 51.15094 | -0.19002 | 205 ft | 16 kts | 258° |
| 2026-04-22 18:38 | 51.15071 | -0.19171 | 211 ft | 16 kts | 257° |
| 2026-04-22 18:38 | 51.15048 | -0.19343 | 205 ft | 17 kts | 258° |
| 2026-04-22 18:38 | 51.15022 | -0.19527 | 208 ft | 17 kts | 257° |
| 2026-04-22 18:39 | 51.14970 | -0.19901 | 211 ft | 18 kts | 257° |
| 2026-04-22 18:39 | 51.14943 | -0.20095 | 205 ft | 19 kts | 258° |
| 2026-04-22 18:39 | 51.14914 | -0.20307 | 205 ft | 20 kts | 257° |
| 2026-04-22 18:39 | 51.14884 | -0.20520 | 213 ft | 20 kts | 257° |
| 2026-04-22 18:40 | 51.14855 | -0.20732 | 210 ft | 18 kts | 258° |
| 2026-04-22 18:40 | 51.14832 | -0.20900 | 205 ft | 14 kts | 257° |
| 2026-04-22 18:40 | 51.14814 | -0.21028 | 208 ft | 11 kts | 257° |
| 2026-04-22 18:40 | 51.14795 | -0.21147 | 211 ft | 12 kts | 253° |
| 2026-04-22 18:41 | 51.14769 | -0.21287 | 209 ft | 15 kts | 256° |
| 2026-04-22 18:41 | 51.14736 | -0.21396 | 208 ft | 3 kts | 200° |
| 2026-04-22 18:43 | 51.14724 | -0.21397 | 210 ft | 4 kts | 183° |
| 2026-04-22 18:43 | 51.14678 | -0.21379 | 212 ft | 9 kts | 148° |
| 2026-04-22 18:44 | 51.14612 | -0.21325 | 207 ft | 13 kts | 164° |
| 2026-04-22 18:44 | 51.14532 | -0.21252 | 206 ft | 14 kts | 126° |
| 2026-04-22 18:44 | 51.14523 | -0.21148 | 206 ft | 7 kts | 78° |
| 2026-04-22 18:44 | 51.14525 | -0.21134 | 215 ft | 0 kts | 76° |
| 2026-04-22 18:47 | 51.14541 | -0.21028 | 216 ft | 37 kts | 77° |
| 2026-04-22 18:47 | 51.14651 | -0.20226 | 209 ft | 108 kts | 77° |
| 2026-04-22 18:47 | 51.14852 | -0.18787 | 424 ft | 141 kts | 77° |
| 2026-04-22 18:48 | 51.15042 | -0.17291 | 1241 ft | 135 kts | 79° |
| 2026-04-22 18:48 | 51.15220 | -0.15833 | 1956 ft | 138 kts | 79° |
| 2026-04-22 18:48 | 51.15442 | -0.14229 | 2391 ft | 159 kts | 79° |
| 2026-04-22 18:48 | 51.15698 | -0.12397 | 2839 ft | 177 kts | 80° |
| 2026-04-22 18:49 | 51.15974 | -0.10441 | 3485 ft | 184 kts | 81° |
| 2026-04-22 18:49 | 51.16258 | -0.08419 | 4167 ft | 190 kts | 81° |
| 2026-04-22 18:49 | 51.16549 | -0.06341 | 4818 ft | 196 kts | 81° |
| 2026-04-22 18:49 | 51.16842 | -0.04118 | 4973 ft | 214 kts | 84° |
| 2026-04-22 18:50 | 51.16857 | -0.01725 | 5010 ft | 218 kts | 94° |
| 2026-04-22 18:50 | 51.16811 | 0.00694 | 5016 ft | 219 kts | 94° |
| 2026-04-22 18:50 | 51.16769 | 0.03121 | 5013 ft | 219 kts | 94° |
| 2026-04-22 18:50 | 51.16727 | 0.05549 | 5013 ft | 221 kts | 94° |
| 2026-04-22 18:51 | 51.16683 | 0.08029 | 5036 ft | 236 kts | 94° |
| 2026-04-22 18:51 | 51.16634 | 0.10662 | 5033 ft | 239 kts | 94° |
| 2026-04-22 18:51 | 51.16585 | 0.13326 | 5106 ft | 243 kts | 94° |
| 2026-04-22 18:51 | 51.16539 | 0.16020 | 6175 ft | 244 kts | 93° |
| 2026-04-22 18:52 | 51.16528 | 0.18736 | 7182 ft | 247 kts | 92° |
| 2026-04-22 18:52 | 51.16538 | 0.21495 | 8101 ft | 251 kts | 92° |
| 2026-04-22 18:52 | 51.16687 | 0.24289 | 9002 ft | 259 kts | 77° |
| 2026-04-22 18:52 | 51.17555 | 0.26847 | 9902 ft | 271 kts | 50° |
| 2026-04-22 18:53 | 51.19127 | 0.28590 | 10771 ft | 281 kts | 30° |
| 2026-04-22 18:53 | 51.20890 | 0.29983 | 11620 ft | 284 kts | 29° |
| 2026-04-22 18:53 | 51.22674 | 0.31381 | 12460 ft | 288 kts | 30° |
| 2026-04-22 18:53 | 51.24480 | 0.32802 | 13301 ft | 291 kts | 30° |
| 2026-04-22 18:54 | 51.26307 | 0.34247 | 14120 ft | 295 kts | 30° |
| 2026-04-22 18:54 | 51.28152 | 0.35713 | 14868 ft | 298 kts | 30° |
| 2026-04-22 18:54 | 51.30016 | 0.37201 | 15596 ft | 301 kts | 30° |
| 2026-04-22 18:54 | 51.31895 | 0.38706 | 16333 ft | 304 kts | 30° |
| 2026-04-22 18:55 | 51.33796 | 0.40231 | 17075 ft | 307 kts | 30° |
| 2026-04-22 18:55 | 51.35716 | 0.41775 | 17398 ft | 309 kts | 30° |
| 2026-04-22 18:55 | 51.37677 | 0.43351 | 17584 ft | 326 kts | 30° |
| 2026-04-22 18:55 | 51.39771 | 0.45041 | 17728 ft | 348 kts | 30° |
| 2026-04-22 18:56 | 51.41971 | 0.46813 | 18114 ft | 358 kts | 29° |
| 2026-04-22 18:56 | 51.44218 | 0.48617 | 18766 ft | 363 kts | 29° |
| 2026-04-22 18:56 | 51.46478 | 0.50429 | 19418 ft | 364 kts | 29° |
| 2026-04-22 18:56 | 51.48745 | 0.52248 | 20146 ft | 364 kts | 28° |
| 2026-04-22 18:57 | 51.51004 | 0.54062 | 20880 ft | 363 kts | 27° |
| 2026-04-22 18:57 | 51.53270 | 0.55885 | 21570 ft | 364 kts | 27° |
| 2026-04-22 18:57 | 51.55539 | 0.57712 | 22230 ft | 366 kts | 26° |
| 2026-04-22 18:57 | 51.57823 | 0.59553 | 22877 ft | 368 kts | 26° |
| 2026-04-22 18:58 | 51.60118 | 0.61409 | 23552 ft | 370 kts | 26° |
| 2026-04-22 18:58 | 51.62415 | 0.63271 | 24166 ft | 371 kts | 25° |
| 2026-04-22 18:58 | 51.64735 | 0.65149 | 24648 ft | 374 kts | 25° |
| 2026-04-22 18:58 | 51.67040 | 0.67021 | 25111 ft | 377 kts | 25° |
| 2026-04-22 18:59 | 51.69418 | 0.68960 | 25581 ft | 380 kts | 25° |
| 2026-04-22 18:59 | 51.71788 | 0.70898 | 26034 ft | 383 kts | 25° |
| 2026-04-22 18:59 | 51.74144 | 0.72827 | 26489 ft | 386 kts | 25° |
| 2026-04-22 18:59 | 51.76545 | 0.74794 | 26936 ft | 389 kts | 24° |
| 2026-04-22 19:00 | 51.78969 | 0.76773 | 27384 ft | 391 kts | 24° |
| 2026-04-22 19:00 | 51.81388 | 0.78829 | 27823 ft | 396 kts | 28° |
| 2026-04-22 19:00 | 51.83629 | 0.81462 | 28270 ft | 402 kts | 38° |
| 2026-04-22 19:00 | 51.85434 | 0.84979 | 28706 ft | 414 kts | 56° |
| 2026-04-22 19:01 | 51.86485 | 0.89359 | 29128 ft | 427 kts | 75° |
| 2026-04-22 19:01 | 51.86802 | 0.94191 | 29539 ft | 434 kts | 80° |
| 2026-04-22 19:01 | 51.87272 | 0.98999 | 29925 ft | 432 kts | 72° |
| 2026-04-22 19:01 | 51.88169 | 1.03620 | 30325 ft | 430 kts | 63° |
| 2026-04-22 19:02 | 51.89031 | 1.08285 | 30679 ft | 441 kts | 78° |
| 2026-04-22 19:02 | 51.88883 | 1.13315 | 30991 ft | 457 kts | 100° |
| 2026-04-22 19:02 | 51.87613 | 1.18080 | 31293 ft | 470 kts | 121° |
| 2026-04-22 19:02 | 51.85354 | 1.21939 | 31613 ft | 478 kts | 143° |
| 2026-04-22 19:03 | 51.82386 | 1.24362 | 31911 ft | 482 kts | 165° |
| 2026-04-22 19:03 | 51.79085 | 1.25015 | 32268 ft | 478 kts | 186° |
| 2026-04-22 19:03 | 51.75893 | 1.23827 | 32686 ft | 468 kts | 208° |
| 2026-04-22 19:03 | 51.73223 | 1.21008 | 33117 ft | 453 kts | 230° |
| 2026-04-22 19:04 | 51.71415 | 1.17000 | 33556 ft | 437 kts | 250° |
| 2026-04-22 19:04 | 51.70466 | 1.12424 | 34017 ft | 426 kts | 264° |
| 2026-04-22 19:04 | 51.70105 | 1.07740 | 34491 ft | 418 kts | 273° |
| 2026-04-22 19:04 | 51.70382 | 1.03156 | 34857 ft | 408 kts | 289° |
| 2026-04-22 19:05 | 51.71520 | 0.99031 | 35154 ft | 402 kts | 307° |
| 2026-04-22 19:05 | 51.73404 | 0.95740 | 35338 ft | 400 kts | 324° |
| 2026-04-22 19:05 | 51.75840 | 0.93602 | 35381 ft | 401 kts | 341° |
| 2026-04-22 19:05 | 51.78588 | 0.92855 | 35385 ft | 405 kts | 359° |
| 2026-04-22 19:06 | 51.81369 | 0.93559 | 35388 ft | 405 kts | 15° |
| 2026-04-22 19:06 | 51.83901 | 0.95554 | 35389 ft | 408 kts | 32° |
| 2026-04-22 19:06 | 51.85976 | 0.98702 | 35390 ft | 415 kts | 49° |
| 2026-04-22 19:07 | 51.88609 | 1.07150 | 35392 ft | 423 kts | 62° |
| 2026-04-22 19:07 | 51.91006 | 1.15851 | 35390 ft | 423 kts | 61° |
| 2026-04-22 19:08 | 51.93409 | 1.24539 | 35393 ft | 422 kts | 61° |
| 2026-04-22 19:08 | 51.95781 | 1.33166 | 35399 ft | 422 kts | 62° |
| 2026-04-22 19:09 | 51.98153 | 1.41859 | 35412 ft | 421 kts | 62° |
| 2026-04-22 19:09 | 52.00132 | 1.49138 | 35413 ft | 421 kts | 62° |
| 2026-04-22 19:10 | 52.02873 | 1.59229 | 35417 ft | 420 kts | 62° |
| 2026-04-22 19:10 | 52.05223 | 1.67904 | 35420 ft | 419 kts | 62° |
| 2026-04-22 19:11 | 52.07562 | 1.76575 | 35421 ft | 419 kts | 62° |
| 2026-04-22 19:11 | 52.09891 | 1.85255 | 35417 ft | 418 kts | 62° |
| 2026-04-22 19:12 | 52.12208 | 1.93928 | 35417 ft | 418 kts | 63° |
| 2026-04-22 19:12 | 52.14516 | 2.02610 | 35424 ft | 418 kts | 63° |
| 2026-04-22 19:13 | 52.16828 | 2.11292 | 35419 ft | 418 kts | 63° |
| 2026-04-22 19:13 | 52.19122 | 2.19976 | 35414 ft | 417 kts | 63° |
| 2026-04-22 19:14 | 52.21410 | 2.28673 | 35417 ft | 417 kts | 63° |
| 2026-04-22 19:14 | 52.23697 | 2.37370 | 35421 ft | 417 kts | 63° |
| 2026-04-22 19:15 | 52.25587 | 2.44597 | 35420 ft | 417 kts | 64° |
| 2026-04-22 19:15 | 52.28231 | 2.54765 | 35424 ft | 416 kts | 64° |
| 2026-04-22 19:16 | 52.30473 | 2.63468 | 35421 ft | 416 kts | 65° |
| 2026-04-22 19:16 | 52.32161 | 2.72536 | 35423 ft | 417 kts | 71° |
| 2026-04-22 19:17 | 52.33775 | 2.81654 | 35426 ft | 417 kts | 71° |
| 2026-04-22 19:17 | 52.35371 | 2.90769 | 35427 ft | 417 kts | 71° |
| 2026-04-22 19:18 | 52.36952 | 2.99881 | 35421 ft | 416 kts | 71° |
| 2026-04-22 19:18 | 52.38531 | 3.09001 | 35425 ft | 416 kts | 71° |
| 2026-04-22 19:19 | 52.39676 | 3.18292 | 35417 ft | 421 kts | 84° |
| 2026-04-22 19:19 | 52.39381 | 3.27896 | 35419 ft | 423 kts | 91° |
| 2026-04-22 19:20 | 52.38968 | 3.37502 | 35418 ft | 423 kts | 91° |
| 2026-04-22 19:20 | 52.38559 | 3.47104 | 35416 ft | 423 kts | 91° |
| 2026-04-22 19:21 | 52.38132 | 3.56637 | 35417 ft | 423 kts | 91° |
| 2026-04-22 19:21 | 52.37693 | 3.66223 | 35422 ft | 422 kts | 91° |
| 2026-04-22 19:22 | 52.37249 | 3.75792 | 35423 ft | 422 kts | 91° |
| 2026-04-22 19:22 | 52.37043 | 3.85337 | 35420 ft | 417 kts | 81° |
| 2026-04-22 19:23 | 52.38339 | 3.94489 | 35419 ft | 412 kts | 71° |
| 2026-04-22 19:23 | 52.39942 | 4.03490 | 35420 ft | 412 kts | 71° |
| 2026-04-22 19:24 | 52.41522 | 4.12508 | 35417 ft | 412 kts | 71° |
| 2026-04-22 19:24 | 52.43088 | 4.21525 | 35421 ft | 411 kts | 71° |
| 2026-04-22 19:25 | 52.44654 | 4.30542 | 35417 ft | 411 kts | 71° |
| 2026-04-22 19:25 | 52.46220 | 4.39555 | 35406 ft | 411 kts | 71° |
| 2026-04-22 19:26 | 52.47777 | 4.48558 | 35404 ft | 410 kts | 72° |
| 2026-04-22 19:26 | 52.49321 | 4.57573 | 35402 ft | 410 kts | 72° |
| 2026-04-22 19:27 | 52.50855 | 4.66578 | 35403 ft | 410 kts | 72° |
| 2026-04-22 19:27 | 52.52378 | 4.75585 | 35402 ft | 409 kts | 72° |
| 2026-04-22 19:28 | 52.54135 | 4.84442 | 35404 ft | 406 kts | 62° |
| 2026-04-22 19:28 | 52.56697 | 4.90917 | 35407 ft | 403 kts | 50° |
| 2026-04-22 19:29 | 52.60154 | 4.98094 | 35408 ft | 403 kts | 51° |
| 2026-04-22 19:29 | 52.63619 | 5.05336 | 35412 ft | 403 kts | 51° |
| 2026-04-22 19:30 | 52.66520 | 5.11420 | 35405 ft | 403 kts | 51° |
| 2026-04-22 19:30 | 52.70535 | 5.19846 | 35406 ft | 402 kts | 51° |
| 2026-04-22 19:31 | 52.73808 | 5.27321 | 35402 ft | 402 kts | 61° |
| 2026-04-22 19:31 | 52.75866 | 5.35911 | 35404 ft | 403 kts | 69° |
| 2026-04-22 19:32 | 52.77743 | 5.44636 | 35409 ft | 405 kts | 69° |
| 2026-04-22 19:32 | 52.79676 | 5.53591 | 35413 ft | 422 kts | 69° |
| 2026-04-22 19:33 | 52.81654 | 5.62805 | 35420 ft | 427 kts | 70° |
| 2026-04-22 19:33 | 52.83630 | 5.72076 | 35420 ft | 428 kts | 70° |
| 2026-04-22 19:34 | 52.85595 | 5.81361 | 35416 ft | 427 kts | 70° |
| 2026-04-22 19:34 | 52.87551 | 5.90639 | 35418 ft | 427 kts | 70° |
| 2026-04-22 19:35 | 52.89500 | 5.99924 | 35420 ft | 427 kts | 70° |
| 2026-04-22 19:35 | 52.91426 | 6.09150 | 35419 ft | 426 kts | 70° |
| 2026-04-22 19:36 | 52.93364 | 6.18429 | 35423 ft | 426 kts | 71° |
| 2026-04-22 19:36 | 52.95285 | 6.27709 | 35430 ft | 425 kts | 71° |
| 2026-04-22 19:37 | 52.97192 | 6.36991 | 35431 ft | 425 kts | 71° |
| 2026-04-22 19:37 | 52.99095 | 6.46264 | 35434 ft | 424 kts | 71° |
| 2026-04-22 19:38 | 53.00994 | 6.55535 | 35439 ft | 424 kts | 71° |
| 2026-04-22 19:38 | 53.02877 | 6.64799 | 35443 ft | 423 kts | 72° |
| 2026-04-22 19:39 | 53.04742 | 6.74061 | 35444 ft | 423 kts | 72° |
| 2026-04-22 19:39 | 53.06598 | 6.83320 | 35439 ft | 422 kts | 72° |
| 2026-04-22 19:40 | 53.08452 | 6.92562 | 35436 ft | 421 kts | 72° |
| 2026-04-22 19:40 | 53.10297 | 7.01790 | 35429 ft | 420 kts | 72° |
| 2026-04-22 19:41 | 53.12135 | 7.10997 | 35430 ft | 419 kts | 73° |
| 2026-04-22 19:41 | 53.13954 | 7.20191 | 35432 ft | 417 kts | 73° |
| 2026-04-22 19:42 | 53.15754 | 7.29364 | 35434 ft | 416 kts | 73° |
| 2026-04-22 19:42 | 53.17547 | 7.38525 | 35434 ft | 415 kts | 73° |
| 2026-04-22 19:43 | 53.20191 | 7.52159 | 34730 ft | 402 kts | 74° |
| 2026-04-22 19:43 | 53.21044 | 7.56570 | 34257 ft | 397 kts | 75° |
| 2026-04-22 19:43 | 53.21892 | 7.60958 | 33305 ft | 401 kts | 75° |
| 2026-04-22 19:44 | 53.22747 | 7.65397 | 32640 ft | 399 kts | 75° |
| 2026-04-22 19:44 | 53.23591 | 7.69770 | 32073 ft | 395 kts | 75° |
| 2026-04-22 19:44 | 53.24434 | 7.74116 | 31472 ft | 392 kts | 73° |
| 2026-04-22 19:44 | 53.25699 | 7.78191 | 30862 ft | 396 kts | 62° |
| 2026-04-22 19:45 | 53.27130 | 7.82017 | 30353 ft | 392 kts | 62° |
| 2026-04-22 19:45 | 53.28550 | 7.85874 | 29760 ft | 388 kts | 62° |
| 2026-04-22 19:45 | 53.29946 | 7.89704 | 29158 ft | 385 kts | 62° |
| 2026-04-22 19:45 | 53.31329 | 7.93510 | 28565 ft | 381 kts | 62° |
| 2026-04-22 19:46 | 53.32701 | 7.97292 | 27993 ft | 379 kts | 62° |
| 2026-04-22 19:46 | 53.34063 | 8.01045 | 27436 ft | 376 kts | 62° |
| 2026-04-22 19:46 | 53.35418 | 8.04767 | 26900 ft | 374 kts | 61° |
| 2026-04-22 19:46 | 53.36769 | 8.08471 | 26375 ft | 371 kts | 61° |
| 2026-04-22 19:47 | 53.38109 | 8.12152 | 25878 ft | 370 kts | 61° |
| 2026-04-22 19:47 | 53.39442 | 8.15822 | 25398 ft | 368 kts | 60° |
| 2026-04-22 19:47 | 53.40770 | 8.19482 | 24919 ft | 366 kts | 60° |
| 2026-04-22 19:47 | 53.42088 | 8.23126 | 24447 ft | 365 kts | 60° |
| 2026-04-22 19:48 | 53.43396 | 8.26741 | 24021 ft | 362 kts | 60° |
| 2026-04-22 19:48 | 53.44697 | 8.30348 | 23483 ft | 360 kts | 60° |
| 2026-04-22 19:48 | 53.45984 | 8.33928 | 22989 ft | 357 kts | 59° |
| 2026-04-22 19:48 | 53.47264 | 8.37491 | 22503 ft | 355 kts | 59° |
| 2026-04-22 19:49 | 53.48531 | 8.41023 | 22023 ft | 352 kts | 59° |
| 2026-04-22 19:49 | 53.49791 | 8.44533 | 21538 ft | 350 kts | 59° |
| 2026-04-22 19:49 | 53.51041 | 8.48024 | 21069 ft | 347 kts | 59° |
| 2026-04-22 19:49 | 53.52277 | 8.51492 | 20611 ft | 345 kts | 59° |
| 2026-04-22 19:50 | 53.53518 | 8.54982 | 20156 ft | 342 kts | 59° |
| 2026-04-22 19:50 | 53.54719 | 8.58357 | 19716 ft | 340 kts | 59° |
| 2026-04-22 19:50 | 53.55930 | 8.61757 | 19284 ft | 338 kts | 59° |
| 2026-04-22 19:50 | 53.57028 | 8.64839 | 18900 ft | 336 kts | 59° |
| 2026-04-22 19:51 | 53.58223 | 8.68200 | 18459 ft | 333 kts | 59° |
| 2026-04-22 19:51 | 53.59408 | 8.71535 | 17985 ft | 331 kts | 59° |
| 2026-04-22 19:51 | 53.60588 | 8.74852 | 17528 ft | 329 kts | 59° |
| 2026-04-22 19:51 | 53.61651 | 8.77845 | 17130 ft | 327 kts | 59° |
| 2026-04-22 19:52 | 53.62816 | 8.81141 | 16668 ft | 326 kts | 59° |
| 2026-04-22 19:52 | 53.63969 | 8.84413 | 16248 ft | 324 kts | 59° |
| 2026-04-22 19:52 | 53.65118 | 8.87672 | 15823 ft | 322 kts | 59° |
| 2026-04-22 19:52 | 53.66257 | 8.90908 | 15430 ft | 320 kts | 59° |
| 2026-04-22 19:53 | 53.67386 | 8.94122 | 15030 ft | 318 kts | 59° |
| 2026-04-22 19:53 | 53.68510 | 8.97323 | 14632 ft | 316 kts | 58° |
| 2026-04-22 19:53 | 53.69624 | 9.00500 | 14249 ft | 314 kts | 58° |
| 2026-04-22 19:53 | 53.70732 | 9.03665 | 13817 ft | 312 kts | 58° |
| 2026-04-22 19:54 | 53.71834 | 9.06812 | 13374 ft | 311 kts | 58° |
| 2026-04-22 19:54 | 53.72930 | 9.09944 | 12933 ft | 309 kts | 58° |
| 2026-04-22 19:54 | 53.74011 | 9.13044 | 12676 ft | 302 kts | 58° |
| 2026-04-22 19:54 | 53.75055 | 9.16044 | 12543 ft | 291 kts | 58° |
| 2026-04-22 19:55 | 53.76063 | 9.18946 | 12410 ft | 281 kts | 58° |
| 2026-04-22 19:55 | 53.77034 | 9.21747 | 12149 ft | 273 kts | 58° |
| 2026-04-22 19:55 | 53.77987 | 9.24498 | 11734 ft | 270 kts | 58° |
| 2026-04-22 19:55 | 53.78936 | 9.27232 | 11301 ft | 269 kts | 58° |
| 2026-04-22 19:56 | 53.79879 | 9.29953 | 10857 ft | 267 kts | 57° |
| 2026-04-22 19:56 | 53.80806 | 9.32660 | 10425 ft | 266 kts | 60° |
| 2026-04-22 19:56 | 53.81468 | 9.35580 | 9956 ft | 267 kts | 73° |
| 2026-04-22 19:56 | 53.81844 | 9.38658 | 9457 ft | 267 kts | 76° |
| 2026-04-22 19:57 | 53.82213 | 9.41722 | 8962 ft | 265 kts | 75° |
| 2026-04-22 19:57 | 53.82584 | 9.44773 | 8470 ft | 264 kts | 75° |
| 2026-04-22 19:57 | 53.82954 | 9.47810 | 7985 ft | 263 kts | 75° |
| 2026-04-22 19:57 | 53.83322 | 9.50829 | 7493 ft | 261 kts | 75° |
| 2026-04-22 19:58 | 53.83687 | 9.53837 | 7014 ft | 260 kts | 75° |
| 2026-04-22 19:58 | 53.84049 | 9.56834 | 6505 ft | 259 kts | 75° |
| 2026-04-22 19:58 | 53.84407 | 9.59816 | 5997 ft | 258 kts | 75° |
| 2026-04-22 19:58 | 53.84758 | 9.62774 | 5648 ft | 250 kts | 75° |
| 2026-04-22 19:59 | 53.85088 | 9.65581 | 5434 ft | 238 kts | 75° |
| 2026-04-22 20:00 | 53.86622 | 9.81814 | 4010 ft | 239 kts | 94° |
| 2026-04-22 20:00 | 53.86417 | 9.84611 | 4011 ft | 239 kts | 94° |
| 2026-04-22 20:01 | 53.86219 | 9.87399 | 4012 ft | 238 kts | 94° |
| 2026-04-22 20:01 | 53.86023 | 9.90188 | 4011 ft | 238 kts | 94° |
| 2026-04-22 20:01 | 53.85829 | 9.92976 | 4006 ft | 238 kts | 94° |
| 2026-04-22 20:01 | 53.85635 | 9.95759 | 4016 ft | 239 kts | 94° |
| 2026-04-22 20:02 | 53.85439 | 9.98555 | 4014 ft | 239 kts | 94° |
| 2026-04-22 20:02 | 53.85243 | 10.01343 | 4009 ft | 239 kts | 94° |
| 2026-04-22 20:02 | 53.85042 | 10.04134 | 4004 ft | 239 kts | 94° |
| 2026-04-22 20:02 | 53.84835 | 10.06926 | 4009 ft | 239 kts | 94° |
| 2026-04-22 20:03 | 53.84617 | 10.09719 | 4012 ft | 240 kts | 94° |
| 2026-04-22 20:03 | 53.84399 | 10.12516 | 4011 ft | 238 kts | 94° |
| 2026-04-22 20:03 | 53.84184 | 10.15232 | 4011 ft | 230 kts | 94° |
| 2026-04-22 20:03 | 53.83971 | 10.17908 | 4011 ft | 229 kts | 95° |
| 2026-04-22 20:04 | 53.83618 | 10.20539 | 4001 ft | 232 kts | 113° |
| 2026-04-22 20:04 | 53.82624 | 10.22657 | 4013 ft | 228 kts | 139° |
| 2026-04-22 20:04 | 53.81380 | 10.24279 | 3986 ft | 224 kts | 143° |
| 2026-04-22 20:04 | 53.80002 | 10.25445 | 3691 ft | 222 kts | 172° |
| 2026-04-22 20:05 | 53.78485 | 10.25357 | 3433 ft | 218 kts | 192° |
| 2026-04-22 20:05 | 53.77004 | 10.24898 | 3227 ft | 213 kts | 194° |
| 2026-04-22 20:05 | 53.75588 | 10.24349 | 3103 ft | 204 kts | 204° |
| 2026-04-22 20:05 | 53.74616 | 10.22844 | 3022 ft | 187 kts | 246° |
| 2026-04-22 20:06 | 53.73946 | 10.20964 | 3014 ft | 189 kts | 235° |
| 2026-04-22 20:06 | 53.73099 | 10.19266 | 2958 ft | 189 kts | 234° |
| 2026-04-22 20:06 | 53.72255 | 10.17566 | 2773 ft | 188 kts | 235° |
| 2026-04-22 20:06 | 53.71421 | 10.15871 | 2530 ft | 187 kts | 235° |
| 2026-04-22 20:07 | 53.70587 | 10.14173 | 2276 ft | 188 kts | 235° |
| 2026-04-22 20:07 | 53.69753 | 10.12472 | 2025 ft | 189 kts | 235° |
| 2026-04-22 20:07 | 53.68914 | 10.10765 | 1793 ft | 187 kts | 235° |
| 2026-04-22 20:07 | 53.68112 | 10.09136 | 1510 ft | 179 kts | 235° |
| 2026-04-22 20:08 | 53.67336 | 10.07558 | 1264 ft | 170 kts | 236° |
| 2026-04-22 20:08 | 53.66591 | 10.06046 | 1034 ft | 161 kts | 236° |
| 2026-04-22 20:08 | 53.65904 | 10.04651 | 809 ft | 152 kts | 235° |
| 2026-04-22 20:08 | 53.65252 | 10.03325 | 605 ft | 142 kts | 234° |
| 2026-04-22 20:09 | 53.64643 | 10.02090 | 417 ft | 133 kts | 234° |
| 2026-04-22 20:09 | 53.64058 | 10.00897 | 237 ft | 131 kts | 235° |
| 2026-04-22 20:09 | 53.63481 | 9.99722 | 68 ft | 130 kts | 234° |
| 2026-04-22 20:09 | 53.62987 | 9.98722 | 45 ft | 73 kts | 229° |
| 2026-04-22 20:10 | 53.62806 | 9.98380 | 43 ft | 15 kts | 213° |
| 2026-04-22 20:10 | 53.62724 | 9.98383 | 45 ft | 9 kts | 146° |
| 2026-04-22 20:10 | 53.62689 | 9.98431 | 46 ft | 0 kts | 141° |
| 2026-04-22 20:11 | 53.62679 | 9.98448 | 47 ft | 7 kts | 128° |
| 2026-04-22 20:11 | 53.62704 | 9.98580 | 47 ft | 13 kts | 50° |
| 2026-04-22 20:11 | 53.62766 | 9.98707 | 47 ft | 15 kts | 51° |
| 2026-04-22 20:12 | 53.62833 | 9.98845 | 47 ft | 16 kts | 47° |
| 2026-04-22 20:12 | 53.62905 | 9.98985 | 47 ft | 17 kts | 50° |
| 2026-04-22 20:12 | 53.62951 | 9.99082 | 47 ft | 14 kts | 51° |
| 2026-04-22 20:12 | 53.63038 | 9.99259 | 47 ft | 14 kts | 49° |
| 2026-04-22 20:13 | 53.63075 | 9.99341 | 47 ft | 0 kts | 55° |
| 2026-04-22 20:13 | 53.63075 | 9.99343 | 47 ft | 1 kts | 55° |
| 2026-04-22 20:14 | 53.63093 | 9.99385 | 47 ft | 8 kts | 56° |
| 2026-04-22 20:14 | 53.63139 | 9.99501 | 46 ft | 15 kts | 56° |
| 2026-04-22 20:14 | 53.63203 | 9.99631 | 48 ft | 12 kts | 51° |
| 2026-04-22 20:14 | 53.63221 | 9.99742 | 48 ft | 10 kts | 107° |
| 2026-04-22 20:15 | 53.63165 | 9.99811 | 47 ft | 11 kts | 156° |
| 2026-04-22 20:15 | 53.63110 | 9.99853 | 48 ft | 9 kts | 154° |
| 2026-04-22 20:15 | 53.63061 | 9.99894 | 48 ft | 7 kts | 153° |
| 2026-04-22 20:15 | 53.63012 | 9.99938 | 48 ft | 9 kts | 149° |
| 2026-04-22 20:16 | 53.62977 | 9.99973 | 48 ft | 9 kts | 149° |
| 2026-04-22 20:16 | 53.62952 | 10.00007 | 48 ft | 1 kts | 127° |
| 2026-04-22 20:16 | 53.62947 | 10.00024 | 48 ft | 3 kts | 108° |
| 2026-04-22 20:16 | 53.62949 | 10.00074 | 48 ft | 6 kts | 76° |
| 2026-04-22 20:17 | 53.62957 | 10.00106 | 47 ft | 3 kts | 73° |
| 2026-04-22 20:17 | 53.62953 | 10.00161 | 45 ft | 6 kts | 105° |
| 2026-04-22 20:17 | 53.62937 | 10.00232 | 46 ft | 7 kts | 110° |
| 2026-04-22 20:17 | 53.62929 | 10.00279 | 48 ft | 3 kts | 108° |
| 2026-04-22 20:18 | 53.62927 | 10.00289 | 48 ft | 1 kts | 107° |
| 2026-04-22 20:18 | 53.62926 | 10.00293 | 48 ft | 0 kts | 107° |